sensor_id;sensor_type;location;lat;lon;timestamp;temperature;humidity
21770;DHT22;11046;49.558;8.674;2023-04-22T00:00:54;13.00;84.30
21770;DHT22;11046;49.558;8.674;2023-04-22T00:03:55;13.00;84.50
21770;DHT22;11046;49.558;8.674;2023-04-22T00:06:55;13.00;84.70
21770;DHT22;11046;49.558;8.674;2023-04-22T00:09:56;13.00;85.00
21770;DHT22;11046;49.558;8.674;2023-04-22T00:12:57;13.00;85.20
21770;DHT22;11046;49.558;8.674;2023-04-22T00:15:57;13.10;85.10
21770;DHT22;11046;49.558;8.674;2023-04-22T00:18:58;13.10;85.10
21770;DHT22;11046;49.558;8.674;2023-04-22T00:21:58;13.20;85.00
21770;DHT22;11046;49.558;8.674;2023-04-22T00:24:59;13.10;85.10
21770;DHT22;11046;49.558;8.674;2023-04-22T00:28:00;13.10;85.20
21770;DHT22;11046;49.558;8.674;2023-04-22T00:31:00;13.10;85.50
21770;DHT22;11046;49.558;8.674;2023-04-22T00:34:02;13.00;85.60
21770;DHT22;11046;49.558;8.674;2023-04-22T00:37:03;13.00;85.90
21770;DHT22;11046;49.558;8.674;2023-04-22T00:40:04;13.00;86.00
21770;DHT22;11046;49.558;8.674;2023-04-22T00:43:07;13.00;85.80
21770;DHT22;11046;49.558;8.674;2023-04-22T00:46:08;12.90;86.20
21770;DHT22;11046;49.558;8.674;2023-04-22T00:49:09;12.70;86.70
21770;DHT22;11046;49.558;8.674;2023-04-22T00:52:10;12.80;87.00
21770;DHT22;11046;49.558;8.674;2023-04-22T00:55:11;12.70;87.10
21770;DHT22;11046;49.558;8.674;2023-04-22T00:58:11;12.60;87.40
21770;DHT22;11046;49.558;8.674;2023-04-22T01:01:12;12.50;87.80
21770;DHT22;11046;49.558;8.674;2023-04-22T01:04:13;12.30;88.60
21770;DHT22;11046;49.558;8.674;2023-04-22T01:07:14;12.20;89.20
21770;DHT22;11046;49.558;8.674;2023-04-22T01:10:15;12.20;89.50
21770;DHT22;11046;49.558;8.674;2023-04-22T01:13:16;12.20;89.60
21770;DHT22;11046;49.558;8.674;2023-04-22T01:16:17;12.10;89.90
21770;DHT22;11046;49.558;8.674;2023-04-22T01:19:18;12.00;90.20
21770;DHT22;11046;49.558;8.674;2023-04-22T01:22:20;12.00;90.20
21770;DHT22;11046;49.558;8.674;2023-04-22T01:25:21;11.80;90.40
21770;DHT22;11046;49.558;8.674;2023-04-22T01:28:22;11.80;90.50
21770;DHT22;11046;49.558;8.674;2023-04-22T01:31:23;11.80;90.60
21770;DHT22;11046;49.558;8.674;2023-04-22T01:34:24;11.70;90.70
21770;DHT22;11046;49.558;8.674;2023-04-22T01:37:24;11.60;90.90
21770;DHT22;11046;49.558;8.674;2023-04-22T01:40:25;11.50;91.00
21770;DHT22;11046;49.558;8.674;2023-04-22T01:43:26;11.60;91.10
21770;DHT22;11046;49.558;8.674;2023-04-22T01:46:27;11.60;91.10
21770;DHT22;11046;49.558;8.674;2023-04-22T01:49:28;11.50;91.10
21770;DHT22;11046;49.558;8.674;2023-04-22T01:52:30;11.40;91.30
21770;DHT22;11046;49.558;8.674;2023-04-22T01:55:30;11.40;91.40
21770;DHT22;11046;49.558;8.674;2023-04-22T01:58:35;11.40;91.30
21770;DHT22;11046;49.558;8.674;2023-04-22T02:01:38;11.50;91.30
21770;DHT22;11046;49.558;8.674;2023-04-22T02:04:40;11.60;91.30
21770;DHT22;11046;49.558;8.674;2023-04-22T02:07:41;11.60;91.30
21770;DHT22;11046;49.558;8.674;2023-04-22T02:10:41;11.60;91.30
21770;DHT22;11046;49.558;8.674;2023-04-22T02:13:42;11.50;91.40
21770;DHT22;11046;49.558;8.674;2023-04-22T02:16:42;11.50;91.50
21770;DHT22;11046;49.558;8.674;2023-04-22T02:19:44;11.50;91.50
21770;DHT22;11046;49.558;8.674;2023-04-22T02:22:44;11.40;91.70
21770;DHT22;11046;49.558;8.674;2023-04-22T02:25:49;11.40;91.70
21770;DHT22;11046;49.558;8.674;2023-04-22T02:28:52;11.40;91.90
21770;DHT22;11046;49.558;8.674;2023-04-22T02:31:53;11.40;91.80
21770;DHT22;11046;49.558;8.674;2023-04-22T02:34:53;11.40;91.80
21770;DHT22;11046;49.558;8.674;2023-04-22T02:37:54;11.40;91.80
21770;DHT22;11046;49.558;8.674;2023-04-22T02:40:58;11.30;91.80
21770;DHT22;11046;49.558;8.674;2023-04-22T02:43:59;11.30;92.00
21770;DHT22;11046;49.558;8.674;2023-04-22T02:47:00;11.20;92.10
21770;DHT22;11046;49.558;8.674;2023-04-22T02:50:03;11.10;92.30
21770;DHT22;11046;49.558;8.674;2023-04-22T02:53:03;11.10;92.50
21770;DHT22;11046;49.558;8.674;2023-04-22T02:56:04;11.10;92.50
21770;DHT22;11046;49.558;8.674;2023-04-22T02:59:05;11.20;92.50
21770;DHT22;11046;49.558;8.674;2023-04-22T03:02:06;11.30;92.50
21770;DHT22;11046;49.558;8.674;2023-04-22T03:05:17;11.30;92.40
21770;DHT22;11046;49.558;8.674;2023-04-22T03:08:19;11.30;92.40
21770;DHT22;11046;49.558;8.674;2023-04-22T03:11:19;11.30;92.50
21770;DHT22;11046;49.558;8.674;2023-04-22T03:14:21;11.30;92.50
21770;DHT22;11046;49.558;8.674;2023-04-22T03:17:22;11.20;92.50
21770;DHT22;11046;49.558;8.674;2023-04-22T03:20:23;11.20;92.60
21770;DHT22;11046;49.558;8.674;2023-04-22T03:23:24;11.10;92.70
21770;DHT22;11046;49.558;8.674;2023-04-22T03:26:25;11.00;92.70
21770;DHT22;11046;49.558;8.674;2023-04-22T03:29:26;11.00;92.70
21770;DHT22;11046;49.558;8.674;2023-04-22T03:32:26;11.00;92.80
21770;DHT22;11046;49.558;8.674;2023-04-22T03:35:43;11.00;92.90
21770;DHT22;11046;49.558;8.674;2023-04-22T03:38:46;10.80;93.00
21770;DHT22;11046;49.558;8.674;2023-04-22T03:41:48;10.80;93.20
21770;DHT22;11046;49.558;8.674;2023-04-22T03:44:49;10.80;93.30
21770;DHT22;11046;49.558;8.674;2023-04-22T03:47:55;10.70;93.30
21770;DHT22;11046;49.558;8.674;2023-04-22T03:51:01;10.60;93.40
21770;DHT22;11046;49.558;8.674;2023-04-22T03:54:06;10.60;93.40
21770;DHT22;11046;49.558;8.674;2023-04-22T03:57:09;10.50;93.60
21770;DHT22;11046;49.558;8.674;2023-04-22T04:00:11;10.40;93.60
21770;DHT22;11046;49.558;8.674;2023-04-22T04:03:14;10.40;93.80
21770;DHT22;11046;49.558;8.674;2023-04-22T04:06:16;10.40;93.90
21770;DHT22;11046;49.558;8.674;2023-04-22T04:09:16;10.30;94.10
21770;DHT22;11046;49.558;8.674;2023-04-22T04:12:17;10.30;94.10
21770;DHT22;11046;49.558;8.674;2023-04-22T04:15:19;10.20;94.30
21770;DHT22;11046;49.558;8.674;2023-04-22T04:18:21;10.20;94.40
21770;DHT22;11046;49.558;8.674;2023-04-22T04:21:24;10.10;94.60
21770;DHT22;11046;49.558;8.674;2023-04-22T04:24:26;10.10;94.60
21770;DHT22;11046;49.558;8.674;2023-04-22T04:27:35;10.00;94.70
21770;DHT22;11046;49.558;8.674;2023-04-22T04:30:36;9.90;94.90
21770;DHT22;11046;49.558;8.674;2023-04-22T04:33:37;9.80;95.10
21770;DHT22;11046;49.558;8.674;2023-04-22T04:36:38;9.90;95.20
21770;DHT22;11046;49.558;8.674;2023-04-22T04:39:47;9.90;95.30
21770;DHT22;11046;49.558;8.674;2023-04-22T04:42:50;9.90;95.30
21770;DHT22;11046;49.558;8.674;2023-04-22T04:45:56;9.90;95.30
21770;DHT22;11046;49.558;8.674;2023-04-22T04:49:07;10.00;95.40
21770;DHT22;11046;49.558;8.674;2023-04-22T04:52:21;10.00;95.30
21770;DHT22;11046;49.558;8.674;2023-04-22T04:55:22;10.00;95.40
21770;DHT22;11046;49.558;8.674;2023-04-22T04:58:24;10.00;95.50
21770;DHT22;11046;49.558;8.674;2023-04-22T05:01:37;10.10;95.50
21770;DHT22;11046;49.558;8.674;2023-04-22T05:04:42;10.20;95.50
21770;DHT22;11046;49.558;8.674;2023-04-22T05:07:42;10.30;95.60
21770;DHT22;11046;49.558;8.674;2023-04-22T05:10:45;10.30;95.60
21770;DHT22;11046;49.558;8.674;2023-04-22T05:13:46;10.30;95.70
21770;DHT22;11046;49.558;8.674;2023-04-22T05:16:54;10.40;95.70
21770;DHT22;11046;49.558;8.674;2023-04-22T05:19:54;10.60;95.60
21770;DHT22;11046;49.558;8.674;2023-04-22T05:22:55;10.60;95.60
21770;DHT22;11046;49.558;8.674;2023-04-22T05:25:57;10.60;95.50
21770;DHT22;11046;49.558;8.674;2023-04-22T05:28:58;10.60;95.70
21770;DHT22;11046;49.558;8.674;2023-04-22T05:32:01;10.60;95.60
21770;DHT22;11046;49.558;8.674;2023-04-22T05:35:03;10.70;95.70
21770;DHT22;11046;49.558;8.674;2023-04-22T05:38:04;10.80;95.60
21770;DHT22;11046;49.558;8.674;2023-04-22T05:41:06;10.80;95.70
21770;DHT22;11046;49.558;8.674;2023-04-22T05:44:07;10.90;95.70
21770;DHT22;11046;49.558;8.674;2023-04-22T05:47:08;11.00;95.70
21770;DHT22;11046;49.558;8.674;2023-04-22T05:50:09;11.10;95.80
21770;DHT22;11046;49.558;8.674;2023-04-22T05:53:24;11.20;95.80
21770;DHT22;11046;49.558;8.674;2023-04-22T05:56:25;11.30;95.80
21770;DHT22;11046;49.558;8.674;2023-04-22T05:59:27;11.30;95.80
21770;DHT22;11046;49.558;8.674;2023-04-22T06:02:28;11.30;95.70
21770;DHT22;11046;49.558;8.674;2023-04-22T06:05:28;11.40;95.70
21770;DHT22;11046;49.558;8.674;2023-04-22T06:08:31;11.50;95.70
21770;DHT22;11046;49.558;8.674;2023-04-22T06:11:32;11.60;95.70
21770;DHT22;11046;49.558;8.674;2023-04-22T06:14:33;11.60;95.80
21770;DHT22;11046;49.558;8.674;2023-04-22T06:17:33;11.60;95.80
21770;DHT22;11046;49.558;8.674;2023-04-22T06:20:35;11.80;95.90
21770;DHT22;11046;49.558;8.674;2023-04-22T06:23:36;11.90;95.80
21770;DHT22;11046;49.558;8.674;2023-04-22T06:26:37;12.00;95.70
21770;DHT22;11046;49.558;8.674;2023-04-22T06:29:38;12.00;95.70
21770;DHT22;11046;49.558;8.674;2023-04-22T06:32:41;12.10;95.70
21770;DHT22;11046;49.558;8.674;2023-04-22T06:35:41;12.20;95.80
21770;DHT22;11046;49.558;8.674;2023-04-22T06:38:42;12.40;95.90
21770;DHT22;11046;49.558;8.674;2023-04-22T06:41:59;12.60;96.00
21770;DHT22;11046;49.558;8.674;2023-04-22T06:45:12;12.80;95.90
21770;DHT22;11046;49.558;8.674;2023-04-22T06:48:24;13.10;95.90
21770;DHT22;11046;49.558;8.674;2023-04-22T06:51:50;13.40;95.80
21770;DHT22;11046;49.558;8.674;2023-04-22T06:54:51;13.80;95.80
21770;DHT22;11046;49.558;8.674;2023-04-22T06:57:52;14.20;95.40
21770;DHT22;11046;49.558;8.674;2023-04-22T07:00:53;14.40;95.00
21770;DHT22;11046;49.558;8.674;2023-04-22T07:03:53;14.30;94.60
21770;DHT22;11046;49.558;8.674;2023-04-22T07:06:54;14.20;94.60
21770;DHT22;11046;49.558;8.674;2023-04-22T07:09:55;14.20;94.60
21770;DHT22;11046;49.558;8.674;2023-04-22T07:12:57;14.40;94.70
21770;DHT22;11046;49.558;8.674;2023-04-22T07:15:58;14.90;94.70
21770;DHT22;11046;49.558;8.674;2023-04-22T07:18:59;15.30;94.40
21770;DHT22;11046;49.558;8.674;2023-04-22T07:21:59;15.70;94.00
21770;DHT22;11046;49.558;8.674;2023-04-22T07:25:00;16.10;93.70
21770;DHT22;11046;49.558;8.674;2023-04-22T07:28:01;16.60;93.30
21770;DHT22;11046;49.558;8.674;2023-04-22T07:31:02;16.90;92.70
21770;DHT22;11046;49.558;8.674;2023-04-22T07:34:02;16.80;92.40
21770;DHT22;11046;49.558;8.674;2023-04-22T07:37:03;16.80;92.30
21770;DHT22;11046;49.558;8.674;2023-04-22T07:40:04;16.90;92.40
21770;DHT22;11046;49.558;8.674;2023-04-22T07:43:10;17.10;92.30
21770;DHT22;11046;49.558;8.674;2023-04-22T07:46:11;17.50;91.60
21770;DHT22;11046;49.558;8.674;2023-04-22T07:49:12;17.80;91.30
21770;DHT22;11046;49.558;8.674;2023-04-22T07:52:13;18.10;91.10
21770;DHT22;11046;49.558;8.674;2023-04-22T07:55:14;18.50;90.60
21770;DHT22;11046;49.558;8.674;2023-04-22T07:58:15;18.80;89.70
21770;DHT22;11046;49.558;8.674;2023-04-22T08:01:16;19.10;88.80
21770;DHT22;11046;49.558;8.674;2023-04-22T08:04:16;19.40;87.80
21770;DHT22;11046;49.558;8.674;2023-04-22T08:07:17;19.80;87.10
21770;DHT22;11046;49.558;8.674;2023-04-22T08:10:18;20.10;85.80
21770;DHT22;11046;49.558;8.674;2023-04-22T08:13:18;20.40;85.30
21770;DHT22;11046;49.558;8.674;2023-04-22T08:16:19;20.70;83.50
21770;DHT22;11046;49.558;8.674;2023-04-22T08:19:19;20.70;83.00
21770;DHT22;11046;49.558;8.674;2023-04-22T08:22:20;20.90;82.40
21770;DHT22;11046;49.558;8.674;2023-04-22T08:25:21;21.00;82.30
21770;DHT22;11046;49.558;8.674;2023-04-22T08:28:21;21.20;81.50
21770;DHT22;11046;49.558;8.674;2023-04-22T08:31:22;21.20;81.20
21770;DHT22;11046;49.558;8.674;2023-04-22T08:34:23;21.20;80.30
21770;DHT22;11046;49.558;8.674;2023-04-22T08:37:25;21.10;80.00
21770;DHT22;11046;49.558;8.674;2023-04-22T08:40:27;21.10;80.50
21770;DHT22;11046;49.558;8.674;2023-04-22T08:43:27;21.30;79.50
21770;DHT22;11046;49.558;8.674;2023-04-22T08:46:29;21.10;79.60
21770;DHT22;11046;49.558;8.674;2023-04-22T08:49:30;21.10;79.60
21770;DHT22;11046;49.558;8.674;2023-04-22T08:52:32;21.20;79.20
21770;DHT22;11046;49.558;8.674;2023-04-22T08:55:34;21.30;79.30
21770;DHT22;11046;49.558;8.674;2023-04-22T08:58:35;21.50;78.50
21770;DHT22;11046;49.558;8.674;2023-04-22T09:01:37;21.50;77.60
21770;DHT22;11046;49.558;8.674;2023-04-22T09:04:39;21.40;78.00
21770;DHT22;11046;49.558;8.674;2023-04-22T09:07:42;21.40;77.30
21770;DHT22;11046;49.558;8.674;2023-04-22T09:10:44;21.40;77.10
21770;DHT22;11046;49.558;8.674;2023-04-22T09:13:46;21.50;76.70
21770;DHT22;11046;49.558;8.674;2023-04-22T09:16:47;21.80;76.60
21770;DHT22;11046;49.558;8.674;2023-04-22T09:19:58;22.20;75.40
21770;DHT22;11046;49.558;8.674;2023-04-22T09:23:02;22.40;74.40
21770;DHT22;11046;49.558;8.674;2023-04-22T09:26:04;22.50;74.00
21770;DHT22;11046;49.558;8.674;2023-04-22T09:29:07;22.70;73.60
21770;DHT22;11046;49.558;8.674;2023-04-22T09:32:12;22.80;72.90
21770;DHT22;11046;49.558;8.674;2023-04-22T09:35:12;22.70;72.80
21770;DHT22;11046;49.558;8.674;2023-04-22T09:38:13;22.70;72.60
21770;DHT22;11046;49.558;8.674;2023-04-22T09:41:14;22.50;72.60
21770;DHT22;11046;49.558;8.674;2023-04-22T09:44:15;22.50;72.10
21770;DHT22;11046;49.558;8.674;2023-04-22T09:47:18;22.60;72.10
21770;DHT22;11046;49.558;8.674;2023-04-22T09:50:20;22.70;72.00
21770;DHT22;11046;49.558;8.674;2023-04-22T09:53:21;22.80;71.90
21770;DHT22;11046;49.558;8.674;2023-04-22T09:56:42;23.10;71.60
21770;DHT22;11046;49.558;8.674;2023-04-22T09:59:42;23.40;70.20
21770;DHT22;11046;49.558;8.674;2023-04-22T10:02:43;23.80;70.30
21770;DHT22;11046;49.558;8.674;2023-04-22T10:05:44;23.90;69.90
21770;DHT22;11046;49.558;8.674;2023-04-22T10:08:45;23.90;69.10
21770;DHT22;11046;49.558;8.674;2023-04-22T10:11:47;23.90;68.50
21770;DHT22;11046;49.558;8.674;2023-04-22T10:14:47;24.10;68.10
21770;DHT22;11046;49.558;8.674;2023-04-22T10:17:49;24.20;67.00
21770;DHT22;11046;49.558;8.674;2023-04-22T10:20:52;24.40;65.50
21770;DHT22;11046;49.558;8.674;2023-04-22T10:23:53;24.30;64.20
21770;DHT22;11046;49.558;8.674;2023-04-22T10:26:58;24.50;63.00
21770;DHT22;11046;49.558;8.674;2023-04-22T10:29:59;24.70;61.50
21770;DHT22;11046;49.558;8.674;2023-04-22T10:36:20;25.10;59.30
21770;DHT22;11046;49.558;8.674;2023-04-22T10:39:21;25.20;58.90
21770;DHT22;11046;49.558;8.674;2023-04-22T10:42:22;25.30;58.10
21770;DHT22;11046;49.558;8.674;2023-04-22T10:45:24;25.40;57.50
21770;DHT22;11046;49.558;8.674;2023-04-22T10:48:48;25.60;56.50
21770;DHT22;11046;49.558;8.674;2023-04-22T10:51:56;25.70;54.70
21770;DHT22;11046;49.558;8.674;2023-04-22T10:54:58;25.80;55.10
21770;DHT22;11046;49.558;8.674;2023-04-22T10:57:59;25.90;54.40
21770;DHT22;11046;49.558;8.674;2023-04-22T11:01:14;26.00;53.60
21770;DHT22;11046;49.558;8.674;2023-04-22T11:04:19;25.90;52.50
21770;DHT22;11046;49.558;8.674;2023-04-22T11:10:31;25.60;53.10
21770;DHT22;11046;49.558;8.674;2023-04-22T11:13:32;25.60;53.20
21770;DHT22;11046;49.558;8.674;2023-04-22T11:16:34;25.60;53.30
21770;DHT22;11046;49.558;8.674;2023-04-22T11:19:35;25.60;53.20
21770;DHT22;11046;49.558;8.674;2023-04-22T11:22:37;25.60;52.90
21770;DHT22;11046;49.558;8.674;2023-04-22T11:25:37;25.70;53.30
21770;DHT22;11046;49.558;8.674;2023-04-22T11:28:45;25.80;53.10
21770;DHT22;11046;49.558;8.674;2023-04-22T11:31:47;25.60;51.60
21770;DHT22;11046;49.558;8.674;2023-04-22T11:34:50;25.50;51.90
21770;DHT22;11046;49.558;8.674;2023-04-22T11:37:57;25.60;52.00
21770;DHT22;11046;49.558;8.674;2023-04-22T11:40:58;25.70;51.20
21770;DHT22;11046;49.558;8.674;2023-04-22T11:43:59;25.80;51.00
21770;DHT22;11046;49.558;8.674;2023-04-22T11:47:01;25.90;50.00
21770;DHT22;11046;49.558;8.674;2023-04-22T11:50:04;25.60;48.60
21770;DHT22;11046;49.558;8.674;2023-04-22T11:53:20;25.40;49.20
21770;DHT22;11046;49.558;8.674;2023-04-22T11:56:20;25.70;49.70
21770;DHT22;11046;49.558;8.674;2023-04-22T11:59:24;25.80;48.90
21770;DHT22;11046;49.558;8.674;2023-04-22T12:02:25;25.90;48.60
21770;DHT22;11046;49.558;8.674;2023-04-22T12:05:59;26.00;48.50
21770;DHT22;11046;49.558;8.674;2023-04-22T12:09:00;26.00;47.30
21770;DHT22;11046;49.558;8.674;2023-04-22T12:12:05;26.00;47.00
21770;DHT22;11046;49.558;8.674;2023-04-22T12:15:09;25.90;46.90
21770;DHT22;11046;49.558;8.674;2023-04-22T12:18:10;25.70;46.70
21770;DHT22;11046;49.558;8.674;2023-04-22T12:21:13;25.40;46.80
21770;DHT22;11046;49.558;8.674;2023-04-22T12:24:14;25.30;46.80
21770;DHT22;11046;49.558;8.674;2023-04-22T12:27:15;25.30;47.40
21770;DHT22;11046;49.558;8.674;2023-04-22T12:30:16;25.40;47.60
21770;DHT22;11046;49.558;8.674;2023-04-22T12:33:16;25.60;47.40
21770;DHT22;11046;49.558;8.674;2023-04-22T12:36:18;25.80;47.20
21770;DHT22;11046;49.558;8.674;2023-04-22T12:39:21;25.70;46.50
21770;DHT22;11046;49.558;8.674;2023-04-22T12:42:22;25.50;46.40
21770;DHT22;11046;49.558;8.674;2023-04-22T12:45:23;25.40;46.80
21770;DHT22;11046;49.558;8.674;2023-04-22T12:48:24;25.30;47.10
21770;DHT22;11046;49.558;8.674;2023-04-22T12:51:24;25.10;46.90
21770;DHT22;11046;49.558;8.674;2023-04-22T12:54:26;24.90;46.80
21770;DHT22;11046;49.558;8.674;2023-04-22T12:57:27;24.70;47.20
21770;DHT22;11046;49.558;8.674;2023-04-22T13:00:27;24.70;47.60
21770;DHT22;11046;49.558;8.674;2023-04-22T13:03:28;24.40;47.60
21770;DHT22;11046;49.558;8.674;2023-04-22T13:06:29;24.10;47.60
21770;DHT22;11046;49.558;8.674;2023-04-22T13:09:31;23.70;47.80
21770;DHT22;11046;49.558;8.674;2023-04-22T13:12:32;23.50;47.20
21770;DHT22;11046;49.558;8.674;2023-04-22T13:15:33;23.30;47.40
21770;DHT22;11046;49.558;8.674;2023-04-22T13:18:33;23.20;47.70
21770;DHT22;11046;49.558;8.674;2023-04-22T13:21:34;23.10;47.90
21770;DHT22;11046;49.558;8.674;2023-04-22T13:24:35;22.90;48.00
21770;DHT22;11046;49.558;8.674;2023-04-22T13:27:36;22.70;48.20
21770;DHT22;11046;49.558;8.674;2023-04-22T13:30:36;22.50;48.40
21770;DHT22;11046;49.558;8.674;2023-04-22T13:33:37;22.30;48.70
21770;DHT22;11046;49.558;8.674;2023-04-22T13:36:38;22.10;48.80
21770;DHT22;11046;49.558;8.674;2023-04-22T13:39:39;22.00;49.10
21770;DHT22;11046;49.558;8.674;2023-04-22T13:42:39;22.00;49.40
21770;DHT22;11046;49.558;8.674;2023-04-22T13:45:40;21.80;49.60
21770;DHT22;11046;49.558;8.674;2023-04-22T13:48:41;21.80;49.80
21770;DHT22;11046;49.558;8.674;2023-04-22T13:51:42;21.70;50.10
21770;DHT22;11046;49.558;8.674;2023-04-22T13:54:42;21.80;50.50
21770;DHT22;11046;49.558;8.674;2023-04-22T13:57:43;21.70;50.60
21770;DHT22;11046;49.558;8.674;2023-04-22T14:00:44;21.70;50.80
21770;DHT22;11046;49.558;8.674;2023-04-22T14:03:46;21.50;50.90
21770;DHT22;11046;49.558;8.674;2023-04-22T14:06:46;21.30;51.00
21770;DHT22;11046;49.558;8.674;2023-04-22T14:09:51;21.20;51.20
21770;DHT22;11046;49.558;8.674;2023-04-22T14:12:52;21.20;51.60
21770;DHT22;11046;49.558;8.674;2023-04-22T14:16:00;21.20;51.50
21770;DHT22;11046;49.558;8.674;2023-04-22T14:19:04;21.20;51.60
21770;DHT22;11046;49.558;8.674;2023-04-22T14:22:08;21.20;51.60
21770;DHT22;11046;49.558;8.674;2023-04-22T14:25:11;21.20;51.80
21770;DHT22;11046;49.558;8.674;2023-04-22T14:28:17;21.10;51.60
21770;DHT22;11046;49.558;8.674;2023-04-22T14:31:20;21.10;51.30
21770;DHT22;11046;49.558;8.674;2023-04-22T14:34:21;21.10;51.10
21770;DHT22;11046;49.558;8.674;2023-04-22T14:37:22;21.00;51.10
21770;DHT22;11046;49.558;8.674;2023-04-22T14:40:39;20.80;50.50
21770;DHT22;11046;49.558;8.674;2023-04-22T14:43:39;20.60;50.40
21770;DHT22;11046;49.558;8.674;2023-04-22T14:46:45;20.60;50.40
21770;DHT22;11046;49.558;8.674;2023-04-22T14:49:52;20.60;50.60
21770;DHT22;11046;49.558;8.674;2023-04-22T14:52:59;20.60;50.50
21770;DHT22;11046;49.558;8.674;2023-04-22T14:55:59;20.70;50.40
21770;DHT22;11046;49.558;8.674;2023-04-22T14:59:00;20.80;50.60
21770;DHT22;11046;49.558;8.674;2023-04-22T15:02:04;20.80;50.70
21770;DHT22;11046;49.558;8.674;2023-04-22T15:05:06;20.80;50.50
21770;DHT22;11046;49.558;8.674;2023-04-22T15:08:12;20.80;50.50
21770;DHT22;11046;49.558;8.674;2023-04-22T15:11:13;20.80;50.40
21770;DHT22;11046;49.558;8.674;2023-04-22T15:14:14;20.80;50.40
21770;DHT22;11046;49.558;8.674;2023-04-22T15:17:15;20.80;50.50
21770;DHT22;11046;49.558;8.674;2023-04-22T15:20:16;20.80;50.70
21770;DHT22;11046;49.558;8.674;2023-04-22T15:23:16;20.80;50.80
21770;DHT22;11046;49.558;8.674;2023-04-22T15:26:20;20.90;50.90
21770;DHT22;11046;49.558;8.674;2023-04-22T15:29:23;21.10;50.60
21770;DHT22;11046;49.558;8.674;2023-04-22T15:32:24;21.20;50.60
21770;DHT22;11046;49.558;8.674;2023-04-22T15:35:27;21.20;50.60
21770;DHT22;11046;49.558;8.674;2023-04-22T15:38:31;21.20;50.50
21770;DHT22;11046;49.558;8.674;2023-04-22T15:41:36;21.20;50.50
21770;DHT22;11046;49.558;8.674;2023-04-22T15:44:40;21.20;50.50
21770;DHT22;11046;49.558;8.674;2023-04-22T15:47:43;21.20;50.30
21770;DHT22;11046;49.558;8.674;2023-04-22T15:50:46;21.20;50.50
21770;DHT22;11046;49.558;8.674;2023-04-22T15:53:47;21.10;50.60
21770;DHT22;11046;49.558;8.674;2023-04-22T15:56:50;21.30;50.40
21770;DHT22;11046;49.558;8.674;2023-04-22T15:59:51;21.30;50.30
21770;DHT22;11046;49.558;8.674;2023-04-22T16:02:57;21.30;50.40
21770;DHT22;11046;49.558;8.674;2023-04-22T16:06:00;21.30;50.40
21770;DHT22;11046;49.558;8.674;2023-04-22T16:09:06;21.30;50.20
21770;DHT22;11046;49.558;8.674;2023-04-22T16:12:12;21.30;50.10
21770;DHT22;11046;49.558;8.674;2023-04-22T16:15:14;21.40;50.10
21770;DHT22;11046;49.558;8.674;2023-04-22T16:18:16;21.30;49.90
21770;DHT22;11046;49.558;8.674;2023-04-22T16:21:19;21.20;49.80
21770;DHT22;11046;49.558;8.674;2023-04-22T16:24:22;21.20;49.90
21770;DHT22;11046;49.558;8.674;2023-04-22T16:27:22;21.10;50.10
21770;DHT22;11046;49.558;8.674;2023-04-22T16:30:23;21.00;50.30
21770;DHT22;11046;49.558;8.674;2023-04-22T16:33:24;20.90;50.20
21770;DHT22;11046;49.558;8.674;2023-04-22T16:36:28;20.80;50.30
21770;DHT22;11046;49.558;8.674;2023-04-22T16:39:29;20.80;50.30
21770;DHT22;11046;49.558;8.674;2023-04-22T16:42:33;20.80;50.50
21770;DHT22;11046;49.558;8.674;2023-04-22T16:45:36;20.70;50.20
21770;DHT22;11046;49.558;8.674;2023-04-22T16:48:37;20.60;50.20
21770;DHT22;11046;49.558;8.674;2023-04-22T16:51:42;20.40;50.20
21770;DHT22;11046;49.558;8.674;2023-04-22T16:54:43;20.40;50.20
21770;DHT22;11046;49.558;8.674;2023-04-22T16:57:51;20.30;50.40
21770;DHT22;11046;49.558;8.674;2023-04-22T17:00:52;20.20;50.50
21770;DHT22;11046;49.558;8.674;2023-04-22T17:04:03;20.10;50.70
21770;DHT22;11046;49.558;8.674;2023-04-22T17:07:04;19.90;50.80
21770;DHT22;11046;49.558;8.674;2023-04-22T17:10:16;19.70;51.20
21770;DHT22;11046;49.558;8.674;2023-04-22T17:13:17;19.70;51.40
21770;DHT22;11046;49.558;8.674;2023-04-22T17:16:18;19.60;51.50
21770;DHT22;11046;49.558;8.674;2023-04-22T17:19:18;19.60;51.60
21770;DHT22;11046;49.558;8.674;2023-04-22T17:22:19;19.60;51.80
21770;DHT22;11046;49.558;8.674;2023-04-22T17:25:24;19.60;52.00
21770;DHT22;11046;49.558;8.674;2023-04-22T17:28:27;19.70;52.40
21770;DHT22;11046;49.558;8.674;2023-04-22T17:31:35;19.70;52.70
21770;DHT22;11046;49.558;8.674;2023-04-22T17:34:45;19.70;53.10
21770;DHT22;11046;49.558;8.674;2023-04-22T17:37:45;19.60;53.20
21770;DHT22;11046;49.558;8.674;2023-04-22T17:40:53;19.60;53.60
21770;DHT22;11046;49.558;8.674;2023-04-22T17:43:56;19.50;54.10
21770;DHT22;11046;49.558;8.674;2023-04-22T17:46:57;19.40;54.40
21770;DHT22;11046;49.558;8.674;2023-04-22T17:50:07;19.20;54.70
21770;DHT22;11046;49.558;8.674;2023-04-22T17:53:13;19.10;55.50
21770;DHT22;11046;49.558;8.674;2023-04-22T17:56:16;19.00;56.10
21770;DHT22;11046;49.558;8.674;2023-04-22T17:59:20;18.80;56.30
21770;DHT22;11046;49.558;8.674;2023-04-22T18:02:20;18.70;56.70
21770;DHT22;11046;49.558;8.674;2023-04-22T18:05:24;18.50;57.10
21770;DHT22;11046;49.558;8.674;2023-04-22T18:08:26;18.40;57.30
21770;DHT22;11046;49.558;8.674;2023-04-22T18:11:35;18.30;57.60
21770;DHT22;11046;49.558;8.674;2023-04-22T18:14:38;18.30;58.10
21770;DHT22;11046;49.558;8.674;2023-04-22T18:17:42;18.20;58.20
21770;DHT22;11046;49.558;8.674;2023-04-22T18:20:42;18.10;58.40
21770;DHT22;11046;49.558;8.674;2023-04-22T18:23:47;18.00;58.20
21770;DHT22;11046;49.558;8.674;2023-04-22T18:26:49;17.90;58.10
21770;DHT22;11046;49.558;8.674;2023-04-22T18:29:53;17.80;58.10
21770;DHT22;11046;49.558;8.674;2023-04-22T18:32:59;17.80;58.30
21770;DHT22;11046;49.558;8.674;2023-04-22T18:36:06;17.70;58.30
21770;DHT22;11046;49.558;8.674;2023-04-22T18:39:12;17.70;58.40
21770;DHT22;11046;49.558;8.674;2023-04-22T18:42:13;17.70;58.50
21770;DHT22;11046;49.558;8.674;2023-04-22T18:45:19;17.50;58.70
21770;DHT22;11046;49.558;8.674;2023-04-22T18:48:22;17.50;59.10
21770;DHT22;11046;49.558;8.674;2023-04-22T18:51:23;17.50;59.20
21770;DHT22;11046;49.558;8.674;2023-04-22T18:54:24;17.50;59.40
21770;DHT22;11046;49.558;8.674;2023-04-22T18:57:30;17.50;59.50
21770;DHT22;11046;49.558;8.674;2023-04-22T19:00:31;17.50;59.60
21770;DHT22;11046;49.558;8.674;2023-04-22T19:03:35;17.40;59.90
21770;DHT22;11046;49.558;8.674;2023-04-22T19:06:36;17.40;61.10
21770;DHT22;11046;49.558;8.674;2023-04-22T19:09:36;17.30;60.30
21770;DHT22;11046;49.558;8.674;2023-04-22T19:12:37;17.30;60.50
21770;DHT22;11046;49.558;8.674;2023-04-22T19:15:40;17.30;60.80
21770;DHT22;11046;49.558;8.674;2023-04-22T19:18:41;17.20;61.00